Thunderstorms From: 25-05-2018 23:09 Until: 26-05-2018 15:00 warning for: Thunderstorms Level: Yellow info button

Although rather usual in this region, locally or potentially dangerous phenomena are expected. (such as local winds, summer thunderstorms, rising streams or high waves) Be aware and pay attention to the latest weather updates, especially if you carry out activities exposed to weather or close to a stream or shoreline. 


Meteo18 Weather Cam more information Meteo18 Weather Cam


warning for Thunderstorms more information blitzortung!


Rain radar more information rain snow radar


Visit our other weather sites:

Template documentation
and downloads

And another site



Weather Underground History page Text

Daily Summary for August 14, 2017 Units:  Metric    English   Both
« Previous Day
Next Day »
Daily Weekly Monthly Yearly Custom
  High: Low: Average:
Temperature: -17.8 °C -10.9 °C -6.2 °C
Dew Point: -17.8 °C -11.4 °C -9.6 °C
Humidity: Humidity % 41 % 71 %
Wind Speed: 0 km/h 0 km/h 3.1 km/h
Wind Gust: 0 km/h - -
Wind:- - SSE
Pressure: 0 hPa 34384.8 hPa -
Precipitation: 0 mm    
Historical Graphs
 
 
Tabular Data for August 14, 2017
Time Temperature Dew Point Pressure Wind Wind Speed Wind Gust Humidity Rainfall Rate (Hourly)
-17.8 °C -17.8 °C 0 hPa Calm     Humidity % 0 mm
00:02 -9.2 °C -10.4 °C 34591.4 hPa Calm   2.6 km/h 86 % 0 mm
00:07 -9.2 °C -10.5 °C 34577.8 hPa Calm   2.6 km/h 86 % 0 mm
00:12 -9.3 °C -10.6 °C 34577.8 hPa Calm   2.6 km/h 86 % 0 mm
00:17 -9.3 °C -10.6 °C 34577.8 hPa Calm   2.6 km/h 86 % 0 mm
00:22 -9.3 °C -10.6 °C 34577.8 hPa Calm   2.6 km/h 86 % 0 mm
00:32 -9.4 °C -10.6 °C 34577.8 hPa Calm   2.6 km/h 87 % 0 mm
00:42 -9.4 °C -10.6 °C 34577.8 hPa Calm   2.6 km/h 87 % 0 mm
00:47 -9.5 °C -10.7 °C 34577.8 hPa Calm   2.6 km/h 87 % 0 mm
00:57 -9.6 °C -10.7 °C 34577.8 hPa Calm   5.1 km/h 88 % 0 mm
01:02 -9.6 °C -10.7 °C 34567.7 hPa Calm   5.1 km/h 88 % 0 mm
01:07 -9.6 °C -10.7 °C 34567.7 hPa Calm   5.1 km/h 88 % 0 mm
01:12 -9.6 °C -10.7 °C 34567.7 hPa Calm   5.1 km/h 88 % 0 mm
01:17 -9.7 °C -10.8 °C 34567.7 hPa Calm   5.1 km/h 88 % 0 mm
01:22 -9.7 °C -10.8 °C 34577.8 hPa Calm   5.1 km/h 88 % 0 mm
01:32 -9.8 °C -10.8 °C 34567.7 hPa Calm   5.1 km/h 89 % 0 mm
01:37 -9.8 °C -10.8 °C 34567.7 hPa Calm   5.1 km/h 89 % 0 mm
01:42 -9.8 °C -10.8 °C 34567.7 hPa Calm   5.1 km/h 89 % 0 mm
01:47 -9.8 °C -10.8 °C 34567.7 hPa Calm   5.1 km/h 89 % 0 mm
01:52 -9.8 °C -10.8 °C 34567.7 hPa Calm     89 % 0 mm
01:57 -9.8 °C -10.9 °C 34567.7 hPa NNE 2.6 km/h 2.6 km/h 88 % 0 mm
02:02 -9.8 °C -10.9 °C 34554.1 hPa Calm   5.1 km/h 88 % 0 mm
02:07 -9.9 °C -10.9 °C 34554.1 hPa North 2.6 km/h 5.1 km/h 89 % 0 mm
02:12 -9.9 °C -10.9 °C 34554.1 hPa Calm   5.1 km/h 89 % 0 mm
02:17 -9.9 °C -10.9 °C 34554.1 hPa Calm   2.6 km/h 89 % 0 mm
02:22 -9.9 °C -10.9 °C 34554.1 hPa Calm   2.6 km/h 89 % 0 mm
02:27 -9.9 °C -10.9 °C 34554.1 hPa Calm   2.6 km/h 89 % 0 mm
02:32 -9.9 °C -10.9 °C 34554.1 hPa Calm   2.6 km/h 89 % 0 mm
02:37 -9.9 °C -10.9 °C 34554.1 hPa Calm   2.6 km/h 89 % 0 mm
02:42 -9.9 °C -10.9 °C 34554.1 hPa Calm   2.6 km/h 89 % 0 mm
02:47 -9.9 °C -10.9 °C 34554.1 hPa Calm   2.6 km/h 89 % 0 mm
02:57 -10.1 °C -10.9 °C 34554.1 hPa Calm   2.6 km/h 90 % 0 mm
03:02 -10.1 °C -10.9 °C 34544 hPa Calm   2.6 km/h 90 % 0 mm
03:07 -10.1 °C -10.9 °C 34544 hPa Calm   2.6 km/h 90 % 0 mm
03:12 -10.1 °C -11 °C 34544 hPa Calm   2.6 km/h 90 % 0 mm
03:17 -10.1 °C -11 °C 34544 hPa Calm     90 % 0 mm
03:22 -10.1 °C -11 °C 34544 hPa Calm     90 % 0 mm
03:27 -10.1 °C -11 °C 34544 hPa Calm     90 % 0 mm
03:32 -10.1 °C -10.9 °C 34544 hPa Calm     90 % 0 mm
03:37 -10.1 °C -10.9 °C 34544 hPa Calm     90 % 0 mm
03:42 -10.1 °C -10.9 °C 34544 hPa Calm     90 % 0 mm
03:52 -10 °C -10.9 °C 34544 hPa Calm     90 % 0 mm
03:57 -10 °C -10.9 °C 34544 hPa Calm     90 % 0 mm
04:02 -10 °C -10.9 °C 34544 hPa Calm     90 % 0 mm
04:07 -10.1 °C -11 °C 34544 hPa Calm     90 % 0 mm
04:12 -10.1 °C -10.9 °C 34544 hPa Calm     91 % 0 mm
04:17 -10.1 °C -10.9 °C 34544 hPa Calm     91 % 0 mm
04:22 -10.2 °C -10.9 °C 34544 hPa Calm     91 % 0 mm
04:27 -10.2 °C -11 °C 34533.8 hPa Calm     91 % 0 mm
04:32 -10.2 °C -11 °C 34544 hPa Calm     91 % 0 mm
04:37 -10.2 °C -10.9 °C 34533.8 hPa Calm     92 % 0 mm
04:42 -10.1 °C -10.8 °C 34533.8 hPa Calm     92 % 0 mm
04:47 -10.1 °C -10.9 °C 34533.8 hPa Calm     91 % 0 mm
04:52 -10.2 °C -10.9 °C 34533.8 hPa Calm     91 % 0 mm
04:57 -10.2 °C -10.9 °C 34533.8 hPa Calm     92 % 0 mm
05:02 -10.2 °C -10.9 °C 34533.8 hPa Calm     92 % 0 mm
05:12 -10.5 °C -11.3 °C 34533.8 hPa Calm     91 % 0 mm
05:17 -10.6 °C -11.3 °C 34533.8 hPa Calm     92 % 0 mm
05:22 -10.6 °C -11.2 °C 34533.8 hPa Calm     93 % 0 mm
05:27 -10.6 °C -11.2 °C 34533.8 hPa Calm     93 % 0 mm
05:32 -10.6 °C -11.1 °C 34533.8 hPa Calm     94 % 0 mm
05:42 -10.6 °C -11.1 °C 34533.8 hPa Calm     94 % 0 mm
05:47 -10.6 °C -11.2 °C 34533.8 hPa Calm     93 % 0 mm
05:52 -10.6 °C -11.1 °C 34533.8 hPa Calm     94 % 0 mm
05:57 -10.7 °C -11.2 °C 34533.8 hPa Calm     94 % 0 mm
06:02 -10.7 °C -11.2 °C 34533.8 hPa Calm     94 % 0 mm
06:12 -10.8 °C -11.3 °C 34533.8 hPa Calm     94 % 0 mm
06:17 -10.9 °C -11.4 °C 34533.8 hPa Calm     94 % 0 mm
06:22 -10.8 °C -11.3 °C 34533.8 hPa Calm     95 % 0 mm
06:32 -10.8 °C -11.2 °C 34533.8 hPa North 2.6 km/h 5.1 km/h 95 % 0 mm
06:37 -10.9 °C -11.4 °C 34533.8 hPa North 5.1 km/h 5.1 km/h 94 % 0 mm
06:42 -10.9 °C -11.3 °C 34533.8 hPa North 5.1 km/h 5.1 km/h 95 % 0 mm
06:47 -10.8 °C -11.3 °C 34533.8 hPa North 2.6 km/h 5.1 km/h 95 % 0 mm
06:52 -10.8 °C -11.3 °C 34520.3 hPa North 2.6 km/h 7.7 km/h 95 % 0 mm
06:57 -10.9 °C -11.4 °C 34520.3 hPa NNE 2.6 km/h 7.7 km/h 94 % 0 mm
07:02 -10.9 °C -11.3 °C 34520.3 hPa North 5.1 km/h 5.1 km/h 95 % 0 mm
07:07 -10.8 °C -11.3 °C 34520.3 hPa North 2.6 km/h 5.1 km/h 94 % 0 mm
07:12 -10.7 °C -11.2 °C 34520.3 hPa Calm   5.1 km/h 94 % 0 mm
07:17 -10.6 °C -11.1 °C 34520.3 hPa Calm   5.1 km/h 94 % 0 mm
07:22 -10.4 °C -10.9 °C 34520.3 hPa Calm   5.1 km/h 94 % 0 mm
07:27 -10.4 °C -10.9 °C 34520.3 hPa Calm     94 % 0 mm
07:32 -10.3 °C -10.9 °C 34533.8 hPa Calm     93 % 0 mm
07:37 -10.2 °C -10.8 °C 34520.3 hPa Calm     93 % 0 mm
07:42 -10.1 °C -10.7 °C 34520.3 hPa Calm     93 % 0 mm
07:47 -9.9 °C -10.6 °C 34520.3 hPa North 2.6 km/h   93 % 0 mm
07:57 -9.9 °C -10.6 °C 34520.3 hPa NNE 5.1 km/h 5.1 km/h 92 % 0 mm
08:02 -9.8 °C -10.5 °C 34520.3 hPa Calm   5.1 km/h 92 % 0 mm
08:12 -9.5 °C -10.3 °C 34520.3 hPa North 2.6 km/h 7.7 km/h 91 % 0 mm
08:17 -9.4 °C -10.2 °C 34533.8 hPa Calm   5.1 km/h 91 % 0 mm
08:22 -9.3 °C -10.2 °C 34533.8 hPa North 2.6 km/h 5.1 km/h 90 % 0 mm
08:32 -9.2 °C -10.2 °C 34520.3 hPa Calm   7.7 km/h 89 % 0 mm
08:37 -9.1 °C -10.1 °C 34520.3 hPa North 2.6 km/h 7.7 km/h 89 % 0 mm
08:42 -8.9 °C -9.9 °C 34520.3 hPa North 2.6 km/h 7.7 km/h 89 % 0 mm
08:47 -8.8 °C -9.8 °C 34533.8 hPa NNE 2.6 km/h 5.1 km/h 89 % 0 mm
08:52 -8.8 °C -9.8 °C 34533.8 hPa NNE 2.6 km/h 7.7 km/h 89 % 0 mm
09:02 -8.5 °C -9.6 °C 34520.3 hPa NNE 2.6 km/h 7.7 km/h 88 % 0 mm
09:12 -8.2 °C -9.5 °C 34533.8 hPa Calm   7.7 km/h 86 % 0 mm
09:17 -7.9 °C -9.4 °C 34533.8 hPa NNE 2.6 km/h 5.1 km/h 85 % 0 mm
09:22 -7.8 °C -9.3 °C 34520.3 hPa Calm   5.1 km/h 85 % 0 mm
09:32 -7.4 °C -9.1 °C 34520.3 hPa ENE 5.1 km/h 5.1 km/h 82 % 0 mm
09:37 -7.4 °C -9 °C 34520.3 hPa Calm   7.7 km/h 83 % 0 mm
09:42 -7.3 °C -9 °C 34520.3 hPa Calm   7.7 km/h 82 % 0 mm
09:47 -7.2 °C -9.1 °C 34520.3 hPa ENE 5.1 km/h 10.3 km/h 81 % 0 mm
09:52 -7.1 °C -8.9 °C 34520.3 hPa ENE 5.1 km/h 10.3 km/h 81 % 0 mm
09:57 -6.9 °C -8.9 °C 34520.3 hPa ENE 7.7 km/h 10.3 km/h 80 % 0 mm
10:02 -6.9 °C -8.9 °C 34520.3 hPa NE 5.1 km/h 10.3 km/h 79 % 0 mm
10:12 -6.5 °C -8.7 °C 34520.3 hPa ENE 2.6 km/h 12.9 km/h 78 % 0 mm
10:17 -6.5 °C -8.8 °C 34520.3 hPa Calm   12.9 km/h 77 % 0 mm
10:22 -6.2 °C -8.8 °C 34520.3 hPa East 10.3 km/h 18.2 km/h 75 % 0 mm
10:27 -6.1 °C -8.7 °C 34510.1 hPa ESE 2.6 km/h 18.2 km/h 75 % 0 mm
10:32 -5.9 °C -8.6 °C 34510.1 hPa ENE 2.6 km/h 18.2 km/h 74 % 0 mm
10:37 -5.9 °C -8.7 °C 34520.3 hPa ESE 7.7 km/h 18.2 km/h 73 % 0 mm
10:42 -5.9 °C -8.6 °C 34510.1 hPa ENE 7.7 km/h 18.2 km/h 74 % 0 mm
10:47 -5.8 °C -8.4 °C 34510.1 hPa ENE 7.7 km/h 20.8 km/h 74 % 0 mm
10:57 -5.5 °C -8.4 °C 34510.1 hPa NE 5.1 km/h 20.8 km/h 72 % 0 mm
11:02 -5.4 °C -8.5 °C 34510.1 hPa East 7.7 km/h 15.6 km/h 71 % 0 mm
11:12 -5.4 °C -8.4 °C 34510.1 hPa ESE 7.7 km/h 15.6 km/h 71 % 0 mm
11:17 -5.3 °C -8.3 °C 34510.1 hPa ENE 12.9 km/h 15.6 km/h 71 % 0 mm
11:22 -5.3 °C -8.3 °C 34510.1 hPa East 10.3 km/h 18.2 km/h 71 % 0 mm
11:27 -5.3 °C -8.4 °C 34510.1 hPa East 5.1 km/h 20.8 km/h 70 % 0 mm
11:32 -5.2 °C -8.4 °C 34510.1 hPa ENE 5.1 km/h 20.8 km/h 70 % 0 mm
11:37 -5.1 °C -8.4 °C 34496.6 hPa ESE 5.1 km/h 20.8 km/h 69 % 0 mm
11:42 -4.9 °C -8.3 °C 34496.6 hPa ENE 2.6 km/h 25.9 km/h 69 % 0 mm
11:47 -4.8 °C -8.3 °C 34496.6 hPa East 18.2 km/h 25.9 km/h 68 % 0 mm
11:52 -4.8 °C -8.1 °C 34496.6 hPa ENE 7.7 km/h 25.9 km/h 69 % 0 mm
11:57 -4.8 °C -8.4 °C 34496.6 hPa ENE 12.9 km/h 20.8 km/h 67 % 0 mm
12:02 -4.8 °C -8.1 °C 34496.6 hPa NE 18.2 km/h 20.8 km/h 69 % 0 mm
12:12 -4.4 °C -8 °C 34496.6 hPa SE 7.7 km/h 25.9 km/h 67 % 0 mm
12:17 -4.3 °C -8.3 °C 34496.6 hPa East 12.9 km/h 25.9 km/h 64 % 0 mm
12:22 -4.4 °C -8.3 °C 34496.6 hPa ENE 12.9 km/h 25.9 km/h 65 % 0 mm
12:27 -4.3 °C -8.2 °C 34486.4 hPa ESE 10.3 km/h 25.9 km/h 65 % 0 mm
12:32 -4 °C -8.2 °C 34486.4 hPa SE 2.6 km/h 25.9 km/h 63 % 0 mm
12:37 -4.1 °C -8.4 °C 34486.4 hPa ENE 5.1 km/h 25.9 km/h 62 % 0 mm
12:42 -3.8 °C -8 °C 34486.4 hPa SSE 10.3 km/h 28.5 km/h 63 % 0 mm
12:47 -3.8 °C -8.4 °C 34486.4 hPa SSE 5.1 km/h 28.5 km/h 60 % 0 mm
12:52 -3.7 °C -8.3 °C 34486.4 hPa SE 5.1 km/h 23.3 km/h 60 % 0 mm
12:57 -3.4 °C -8.2 °C 34486.4 hPa SSE 10.3 km/h 23.3 km/h 59 % 0 mm
13:02 -3.5 °C -8.6 °C 34486.4 hPa ENE 10.3 km/h 20.8 km/h 57 % 0 mm
13:07 -3.5 °C -8.4 °C 34476.3 hPa WSW 5.1 km/h 20.8 km/h 58 % 0 mm
13:12 -3.4 °C -8.5 °C 34476.3 hPa ESE 12.9 km/h 23.3 km/h 57 % 0 mm
13:17 -3.2 °C -8.5 °C 34476.3 hPa ESE 5.1 km/h 28.5 km/h 56 % 0 mm
13:22 -3.3 °C -8.6 °C 34476.3 hPa SSE 5.1 km/h 28.5 km/h 56 % 0 mm
13:32 -3.2 °C -8 °C 34462.7 hPa South 7.7 km/h 15.6 km/h 59 % 0 mm
13:42 -3.3 °C -8.4 °C 34462.7 hPa SE 2.6 km/h 18.2 km/h 57 % 0 mm
13:47 -3.2 °C -8.3 °C 34462.7 hPa ESE 7.7 km/h 15.6 km/h 57 % 0 mm
13:52 -3.2 °C -8.2 °C 34462.7 hPa ENE 12.9 km/h 20.8 km/h 58 % 0 mm
13:57 -3.1 °C -8.4 °C 34462.7 hPa SE 7.7 km/h 20.8 km/h 56 % 0 mm
14:02 -2.9 °C -8.1 °C 34452.6 hPa ESE 10.3 km/h 18.2 km/h 57 % 0 mm
14:07 -2.8 °C -8.3 °C 34452.6 hPa SW 2.6 km/h 18.2 km/h 55 % 0 mm
14:12 -2.8 °C -7.9 °C 34452.6 hPa South 5.1 km/h 23.3 km/h 57 % 0 mm
14:17 -2.8 °C -7.8 °C 34452.6 hPa SSW 5.1 km/h 23.3 km/h 58 % 0 mm
14:22 -2.8 °C -8.1 °C 34452.6 hPa SSE 5.1 km/h 23.3 km/h 56 % 0 mm
14:32 -2.9 °C -8.5 °C 34452.6 hPa SE 7.7 km/h 23.3 km/h 54 % 0 mm
14:37 -2.7 °C -8.6 °C 34452.6 hPa South 10.3 km/h 23.3 km/h 52 % 0 mm
14:42 -2.8 °C -8.9 °C 34452.6 hPa SW 7.7 km/h 18.2 km/h 51 % 0 mm
14:52 -2.4 °C -8.4 °C 34452.6 hPa SE 10.3 km/h 20.8 km/h 52 % 0 mm
14:57 -2.4 °C -8.4 °C 34442.4 hPa South 5.1 km/h 20.8 km/h 52 % 0 mm
15:02 -2.3 °C -8.5 °C 34442.4 hPa East 12.9 km/h 20.8 km/h 51 % 0 mm
15:07 -2.4 °C -8.9 °C 34442.4 hPa South 5.1 km/h 18.2 km/h 49 % 0 mm
15:12 -2.4 °C -8.7 °C 34442.4 hPa East 5.1 km/h 18.2 km/h 50 % 0 mm
15:17 -2.3 °C -8.7 °C 34442.4 hPa SSE 2.6 km/h 18.2 km/h 50 % 0 mm
15:22 -2.2 °C -8.5 °C 34442.4 hPa Calm   18.2 km/h 50 % 0 mm
15:32 -1.9 °C -8.5 °C 34428.8 hPa SE 2.6 km/h 12.9 km/h 49 % 0 mm
15:37 -1.9 °C -8.3 °C 34428.8 hPa East 10.3 km/h 12.9 km/h 50 % 0 mm
15:42 -1.8 °C -8.4 °C 34428.8 hPa South 5.1 km/h 12.9 km/h 49 % 0 mm
15:47 -1.9 °C -8.8 °C 34428.8 hPa East 10.3 km/h 12.9 km/h 47 % 0 mm
15:52 -2 °C -8.5 °C 34428.8 hPa SSE 5.1 km/h 18.2 km/h 49 % 0 mm
15:57 -1.9 °C -8.7 °C 34418.7 hPa SSE 7.7 km/h 18.2 km/h 48 % 0 mm
16:02 -2.1 °C -8.8 °C 34418.7 hPa SW 10.3 km/h 18.2 km/h 48 % 0 mm
16:07 -2.1 °C -8.6 °C 34418.7 hPa SSE 7.7 km/h 18.2 km/h 49 % 0 mm
16:12 -2 °C -8.5 °C 34418.7 hPa SSW 2.6 km/h 15.6 km/h 49 % 0 mm
16:17 -1.9 °C -8.8 °C 34418.7 hPa SSW 7.7 km/h 18.2 km/h 47 % 0 mm
16:22 -1.9 °C -9.2 °C 34418.7 hPa SW 12.9 km/h 18.2 km/h 45 % 0 mm
16:32 -2.1 °C -9.4 °C 34418.7 hPa Calm   25.9 km/h 45 % 0 mm
16:37 -2 °C -9.3 °C 34405.1 hPa WSW 7.7 km/h 25.9 km/h 45 % 0 mm
16:42 -1.8 °C -9.1 °C 34418.7 hPa South 10.3 km/h 18.2 km/h 45 % 0 mm
16:47 -1.9 °C -9.3 °C 34405.1 hPa West 2.6 km/h 23.3 km/h 44 % 0 mm
16:52 -1.8 °C -9.1 °C 34405.1 hPa SW 10.3 km/h 23.3 km/h 45 % 0 mm
16:57 -1.9 °C -8.6 °C 34405.1 hPa SW 10.3 km/h 23.3 km/h 48 % 0 mm
17:02 -1.8 °C -8.3 °C 34405.1 hPa ESE 5.1 km/h 20.8 km/h 49 % 0 mm
17:07 -1.6 °C -9.1 °C 34405.1 hPa East 2.6 km/h 25.9 km/h 44 % 0 mm
17:12 -1.4 °C -9.2 °C 34405.1 hPa SE 2.6 km/h 25.9 km/h 43 % 0 mm
17:22 -2 °C -9.4 °C 34405.1 hPa WSW 10.3 km/h 23.3 km/h 44 % 0 mm
17:27 -2 °C -9.3 °C 34405.1 hPa West 5.1 km/h 23.3 km/h 45 % 0 mm
17:32 -1.8 °C -9.3 °C 34405.1 hPa South 5.1 km/h 20.8 km/h 44 % 0 mm
17:37 -1.7 °C -9.4 °C 34395 hPa WSW 10.3 km/h 15.6 km/h 43 % 0 mm
17:42 -1.7 °C -9 °C 34405.1 hPa SW 10.3 km/h 15.6 km/h 45 % 0 mm
17:47 -1.7 °C -8.8 °C 34405.1 hPa SSW 5.1 km/h 23.3 km/h 46 % 0 mm
17:52 -1.6 °C -9.3 °C 34395 hPa Calm   23.3 km/h 43 % 0 mm
18:17 -1.3 °C -9.1 °C 34395 hPa Calm   15.6 km/h 43 % 0 mm
18:22 -1.2 °C -8.6 °C 34395 hPa South 2.6 km/h 15.6 km/h 45 % 0 mm
18:27 -1.2 °C -9.1 °C 34395 hPa South 7.7 km/h 15.6 km/h 42 % 0 mm
18:32 -1.2 °C -8.9 °C 34395 hPa SW 5.1 km/h 15.6 km/h 43 % 0 mm
18:37 -1.2 °C -8.9 °C 34395 hPa Calm   15.6 km/h 43 % 0 mm
18:42 -1.3 °C -9.2 °C 34395 hPa SW 2.6 km/h 15.6 km/h 42 % 0 mm
18:52 -1.4 °C -9.4 °C 34384.8 hPa SW 5.1 km/h 12.9 km/h 42 % 0 mm
18:57 -1.3 °C -8.8 °C 34384.8 hPa Calm   12.9 km/h 44 % 0 mm
19:02 -1.3 °C -8.6 °C 34395 hPa WSW 10.3 km/h 12.9 km/h 45 % 0 mm
19:12 -1.4 °C -9.2 °C 34384.8 hPa SW 5.1 km/h 12.9 km/h 43 % 0 mm
19:17 -1.6 °C -9.3 °C 34384.8 hPa WSW 2.6 km/h 12.9 km/h 43 % 0 mm
19:22 -1.5 °C -8.8 °C 34384.8 hPa Calm   12.9 km/h 45 % 0 mm
19:27 -1.4 °C -9.4 °C 34384.8 hPa West 5.1 km/h 12.9 km/h 42 % 0 mm
19:32 -1.5 °C -9.4 °C 34384.8 hPa WSW 7.7 km/h 7.7 km/h 42 % 0 mm
19:42 -1.6 °C -9.1 °C 34384.8 hPa Calm   7.7 km/h 44 % 0 mm
19:47 -1.5 °C -9.4 °C 34384.8 hPa Calm   7.7 km/h 42 % 0 mm
19:52 -1.4 °C -9.2 °C 34384.8 hPa WNW 2.6 km/h 5.1 km/h 43 % 0 mm
19:57 -1.4 °C -9.4 °C 34384.8 hPa Calm   5.1 km/h 42 % 0 mm
20:02 -1.5 °C -9.2 °C 34384.8 hPa Calm   5.1 km/h 43 % 0 mm
20:07 -1.4 °C -9.5 °C 34384.8 hPa Calm   5.1 km/h 41 % 0 mm
20:12 -1.5 °C -9.2 °C 34384.8 hPa Calm   5.1 km/h 43 % 0 mm
20:17 -1.8 °C -9.3 °C 34384.8 hPa Calm     44 % 0 mm
20:22 -2 °C -9.1 °C 34384.8 hPa Calm     46 % 0 mm
20:32 -2.4 °C -9.1 °C 34384.8 hPa Calm     48 % 0 mm
20:37 -2.6 °C -8.9 °C 34395 hPa Calm     50 % 0 mm
20:42 -2.8 °C -8.8 °C 34384.8 hPa Calm     52 % 0 mm
20:47 -3.2 °C -9.1 °C 34395 hPa Calm     52 % 0 mm
20:52 -3.4 °C -9.3 °C 34395 hPa Calm     52 % 0 mm
20:57 -3.5 °C -9.1 °C 34395 hPa Calm     54 % 0 mm
21:02 -3.6 °C -9.1 °C 34395 hPa Calm     54 % 0 mm
21:12 -3.8 °C -8.9 °C 34395 hPa Calm     57 % 0 mm
21:17 -3.9 °C -8.8 °C 34395 hPa Calm     58 % 0 mm
21:22 -4.2 °C -8.8 °C 34395 hPa Calm     60 % 0 mm
21:32 -4.4 °C -8.7 °C 34395 hPa Calm     62 % 0 mm
21:37 -4.6 °C -8.6 °C 34405.1 hPa Calm     64 % 0 mm
21:42 -4.8 °C -8.7 °C 34405.1 hPa Calm     65 % 0 mm
21:52 -5.1 °C -8.7 °C 34405.1 hPa Calm     67 % 0 mm
21:57 -5.2 °C -8.7 °C 34405.1 hPa Calm     67 % 0 mm
22:02 -5.3 °C -8.7 °C 34405.1 hPa Calm     69 % 0 mm
22:12 -5.7 °C -8.8 °C 34405.1 hPa Calm     71 % 0 mm
22:17 -5.8 °C -8.8 °C 34405.1 hPa Calm     71 % 0 mm
22:22 -5.7 °C -8.8 °C 34405.1 hPa Calm     70 % 0 mm
22:27 -5.6 °C -8.9 °C 34405.1 hPa Calm     69 % 0 mm
22:32 -5.6 °C -8.9 °C 34405.1 hPa Calm     69 % 0 mm
22:37 -5.7 °C -8.8 °C 34405.1 hPa Calm     70 % 0 mm
22:42 -5.8 °C -8.9 °C 34405.1 hPa Calm     71 % 0 mm
22:52 -6 °C -9.1 °C 34405.1 hPa Calm     71 % 0 mm
22:57 -6.1 °C -9.1 °C 34405.1 hPa Calm     71 % 0 mm
23:02 -6 °C -8.9 °C 34405.1 hPa Calm     72 % 0 mm
23:07 -6.2 °C -9 °C 34405.1 hPa Calm     73 % 0 mm
23:12 -6.2 °C -8.9 °C 34405.1 hPa Calm     73 % 0 mm
23:17 -6.2 °C -8.9 °C 34405.1 hPa Calm     73 % 0 mm
23:22 -6.3 °C -9.1 °C 34405.1 hPa Calm     73 % 0 mm
23:32 -6.3 °C -9.1 °C 34405.1 hPa Calm     73 % 0 mm
23:37 -6.3 °C -9.1 °C 34395 hPa Calm     73 % 0 mm
23:42 -6.3 °C -9 °C 34405.1 hPa Calm     74 % 0 mm
23:47 -6.5 °C -9.2 °C 34405.1 hPa Calm     74 % 0 mm
23:52 -6.6 °C -9.2 °C 34405.1 hPa Calm     75 % 0 mm
23:57 -6.6 °C -9.2 °C 34395 hPa Calm     75 % 0 mm
Meteo18
Compliments of Weather Underground - 4 mb

Script developed by  Jim McMurry - jmcmurry@mwt.net Adapted for the template by  Wim van der Kuil - Leuven-Template.eu

You find our weather info also at:

European Weather Network

Weather Underground

Equipment we use:

Weather-station
Davis Vue

Weather-program
Meteobridge

Weather-server
Raspberry PI 2 B+

Provider
1 and 1

Davis Vue

Meteobridge

Raspberry PI 2 B+

1 and 1